sensor_id;sensor_type;location;lat;lon;timestamp;pressure;altitude;pressure_sealevel;temperature;humidity
60479;BME280;46321;48.398;11.754;2022-09-29T00:00:36;95197.84;;;7.42;88.58
60479;BME280;46321;48.398;11.754;2022-09-29T00:03:01;95198.25;;;7.39;89.13
60479;BME280;46321;48.398;11.754;2022-09-29T00:05:27;95202.50;;;7.40;88.83
60479;BME280;46321;48.398;11.754;2022-09-29T00:07:52;95192.53;;;7.35;88.99
60479;BME280;46321;48.398;11.754;2022-09-29T00:10:17;95201.44;;;7.34;88.94
60479;BME280;46321;48.398;11.754;2022-09-29T00:12:43;95202.25;;;7.35;88.78
60479;BME280;46321;48.398;11.754;2022-09-29T00:15:08;95201.63;;;7.32;88.89
60479;BME280;46321;48.398;11.754;2022-09-29T00:17:34;95201.81;;;7.31;88.91
60479;BME280;46321;48.398;11.754;2022-09-29T00:19:59;95199.56;;;7.28;88.58
60479;BME280;46321;48.398;11.754;2022-09-29T00:22:25;95204.13;;;7.19;88.64
60479;BME280;46321;48.398;11.754;2022-09-29T00:24:50;95200.03;;;7.16;88.39
60479;BME280;46321;48.398;11.754;2022-09-29T00:27:18;95191.88;;;7.11;88.81
60479;BME280;46321;48.398;11.754;2022-09-29T00:29:44;95186.97;;;7.08;88.78
60479;BME280;46321;48.398;11.754;2022-09-29T00:32:10;95189.78;;;7.06;88.87
60479;BME280;46321;48.398;11.754;2022-09-29T00:34:35;95186.53;;;7.04;88.84
60479;BME280;46321;48.398;11.754;2022-09-29T00:37:00;95185.56;;;7.05;88.40
60479;BME280;46321;48.398;11.754;2022-09-29T00:39:26;95186.53;;;7.04;88.39
60479;BME280;46321;48.398;11.754;2022-09-29T00:41:51;95188.53;;;7.02;88.46
60479;BME280;46321;48.398;11.754;2022-09-29T00:46:54;95188.09;;;6.98;88.40
60479;BME280;46321;48.398;11.754;2022-09-29T00:52:01;95192.53;;;6.98;88.29
60479;BME280;46321;48.398;11.754;2022-09-29T00:54:32;95186.66;;;6.96;88.44
60479;BME280;46321;48.398;11.754;2022-09-29T00:57:01;95192.09;;;6.94;88.42
60479;BME280;46321;48.398;11.754;2022-09-29T00:59:42;95192.81;;;6.88;88.68
60479;BME280;46321;48.398;11.754;2022-09-29T01:02:12;95179.50;;;6.90;88.70
60479;BME280;46321;48.398;11.754;2022-09-29T01:04:38;95179.78;;;6.80;89.10
60479;BME280;46321;48.398;11.754;2022-09-29T01:07:05;95184.22;;;6.79;88.78
60479;BME280;46321;48.398;11.754;2022-09-29T01:09:35;95172.09;;;6.78;88.77
60479;BME280;46321;48.398;11.754;2022-09-29T01:12:02;95171.88;;;6.80;88.84
60479;BME280;46321;48.398;11.754;2022-09-29T01:14:29;95159.28;;;6.75;89.16
60479;BME280;46321;48.398;11.754;2022-09-29T01:16:55;95158.94;;;6.78;89.46
60479;BME280;46321;48.398;11.754;2022-09-29T01:19:43;95163.19;;;6.79;89.79
60479;BME280;46321;48.398;11.754;2022-09-29T01:23:01;95157.56;;;6.82;89.96
60479;BME280;46321;48.398;11.754;2022-09-29T01:31:40;95157.56;;;6.82;89.76
60479;BME280;46321;48.398;11.754;2022-09-29T01:34:24;95156.72;;;6.82;89.67
60479;BME280;46321;48.398;11.754;2022-09-29T01:37:07;95160.00;;;6.84;89.63
60479;BME280;46321;48.398;11.754;2022-09-29T01:39:40;95153.28;;;6.81;89.65
60479;BME280;46321;48.398;11.754;2022-09-29T01:42:11;95154.94;;;6.82;89.67
60479;BME280;46321;48.398;11.754;2022-09-29T01:44:46;95162.47;;;6.85;89.52
60479;BME280;46321;48.398;11.754;2022-09-29T01:47:19;95159.84;;;6.85;89.74
60479;BME280;46321;48.398;11.754;2022-09-29T01:49:52;95161.81;;;6.83;89.59
60479;BME280;46321;48.398;11.754;2022-09-29T01:52:23;95155.19;;;6.87;89.63
60479;BME280;46321;48.398;11.754;2022-09-29T01:55:01;95154.38;;;6.87;89.69
60479;BME280;46321;48.398;11.754;2022-09-29T01:57:31;95161.25;;;6.88;89.66
60479;BME280;46321;48.398;11.754;2022-09-29T02:00:09;95155.19;;;6.87;89.73
60479;BME280;46321;48.398;11.754;2022-09-29T02:02:50;95160.06;;;6.91;89.54
60479;BME280;46321;48.398;11.754;2022-09-29T02:05:20;95154.19;;;6.89;89.92
60479;BME280;46321;48.398;11.754;2022-09-29T02:07:47;95155.19;;;6.87;90.06
60479;BME280;46321;48.398;11.754;2022-09-29T02:10:20;95159.84;;;6.85;89.76
60479;BME280;46321;48.398;11.754;2022-09-29T02:12:47;95153.75;;;6.85;89.89
60479;BME280;46321;48.398;11.754;2022-09-29T02:15:19;95157.56;;;6.82;90.61
60479;BME280;46321;48.398;11.754;2022-09-29T02:17:47;95157.56;;;6.82;90.74
60479;BME280;46321;48.398;11.754;2022-09-29T02:20:14;95155.13;;;6.81;90.50
60479;BME280;46321;48.398;11.754;2022-09-29T02:22:40;95159.63;;;6.87;90.44
60479;BME280;46321;48.398;11.754;2022-09-29T02:25:07;95152.38;;;6.89;90.38
60479;BME280;46321;48.398;11.754;2022-09-29T02:27:35;95160.25;;;6.89;90.51
60479;BME280;46321;48.398;11.754;2022-09-29T02:30:00;95153.19;;;6.90;90.27
60479;BME280;46321;48.398;11.754;2022-09-29T02:32:26;95153.19;;;6.90;90.30
60479;BME280;46321;48.398;11.754;2022-09-29T02:34:53;95156.00;;;6.88;90.42
60479;BME280;46321;48.398;11.754;2022-09-29T02:40:20;95166.78;;;6.93;90.26
60479;BME280;46321;48.398;11.754;2022-09-29T02:45:41;95157.63;;;6.89;90.44
60479;BME280;46321;48.398;11.754;2022-09-29T02:48:49;95160.06;;;6.91;90.60
60479;BME280;46321;48.398;11.754;2022-09-29T02:51:20;95153.19;;;6.90;90.66
60479;BME280;46321;48.398;11.754;2022-09-29T02:54:24;95160.53;;;6.94;90.71
60479;BME280;46321;48.398;11.754;2022-09-29T02:59:26;95163.59;;;6.98;90.49
60479;BME280;46321;48.398;11.754;2022-09-29T03:01:56;95160.97;;;6.98;90.57
60479;BME280;46321;48.398;11.754;2022-09-29T03:04:24;95163.97;;;6.95;90.45
60479;BME280;46321;48.398;11.754;2022-09-29T03:06:50;95155.63;;;6.91;90.42
60479;BME280;46321;48.398;11.754;2022-09-29T03:09:16;95157.72;;;6.96;90.40
60479;BME280;46321;48.398;11.754;2022-09-29T03:11:41;95159.94;;;6.99;90.35
60479;BME280;46321;48.398;11.754;2022-09-29T03:14:07;95161.97;;;6.97;90.54
60479;BME280;46321;48.398;11.754;2022-09-29T03:16:33;95148.44;;;7.00;90.47
60479;BME280;46321;48.398;11.754;2022-09-29T03:18:59;95148.63;;;6.98;90.40
60479;BME280;46321;48.398;11.754;2022-09-29T03:21:25;95148.56;;;6.92;90.51
60479;BME280;46321;48.398;11.754;2022-09-29T03:23:50;95146.91;;;6.91;90.49
60479;BME280;46321;48.398;11.754;2022-09-29T03:26:15;95147.75;;;6.91;90.78
60479;BME280;46321;48.398;11.754;2022-09-29T03:28:40;95141.47;;;6.92;90.29
60479;BME280;46321;48.398;11.754;2022-09-29T03:31:08;95137.56;;;6.88;90.53
60479;BME280;46321;48.398;11.754;2022-09-29T03:33:35;95141.47;;;6.92;90.62
60479;BME280;46321;48.398;11.754;2022-09-29T03:36:01;95141.47;;;6.92;90.51
60479;BME280;46321;48.398;11.754;2022-09-29T03:38:28;95136.59;;;6.89;90.19
60479;BME280;46321;48.398;11.754;2022-09-29T03:40:53;95135.13;;;6.86;90.19
60479;BME280;46321;48.398;11.754;2022-09-29T03:43:18;95136.94;;;6.86;89.72
60479;BME280;46321;48.398;11.754;2022-09-29T03:45:52;95146.22;;;6.82;89.28
60479;BME280;46321;48.398;11.754;2022-09-29T03:48:18;95146.41;;;6.80;89.27
60479;BME280;46321;48.398;11.754;2022-09-29T03:50:44;95149.22;;;6.79;89.78
60479;BME280;46321;48.398;11.754;2022-09-29T03:53:10;95138.25;;;6.75;89.84
60479;BME280;46321;48.398;11.754;2022-09-29T03:55:35;95136.97;;;6.71;89.84
60479;BME280;46321;48.398;11.754;2022-09-29T03:58:01;95132.34;;;6.73;89.70
60479;BME280;46321;48.398;11.754;2022-09-29T04:00:26;95131.38;;;6.74;89.42
60479;BME280;46321;48.398;11.754;2022-09-29T04:02:54;95124.59;;;6.64;89.72
60479;BME280;46321;48.398;11.754;2022-09-29T04:05:20;95129.44;;;6.68;89.48
60479;BME280;46321;48.398;11.754;2022-09-29T04:07:46;95130.13;;;6.70;89.63
60479;BME280;46321;48.398;11.754;2022-09-29T04:10:11;95129.91;;;6.71;89.83
60479;BME280;46321;48.398;11.754;2022-09-29T04:12:36;95135.81;;;6.73;89.80
60479;BME280;46321;48.398;11.754;2022-09-29T04:15:02;95131.38;;;6.74;89.93
60479;BME280;46321;48.398;11.754;2022-09-29T04:17:27;95135.63;;;6.75;89.82
60479;BME280;46321;48.398;11.754;2022-09-29T04:19:53;95137.41;;;6.74;90.02
60479;BME280;46321;48.398;11.754;2022-09-29T04:22:18;95147.16;;;6.74;90.35
60479;BME280;46321;48.398;11.754;2022-09-29T04:24:44;95138.78;;;6.70;91.08
60479;BME280;46321;48.398;11.754;2022-09-29T04:27:09;95146.13;;;6.75;91.05
60479;BME280;46321;48.398;11.754;2022-09-29T04:29:35;95146.53;;;6.72;91.57
60479;BME280;46321;48.398;11.754;2022-09-29T04:32:00;95147.16;;;6.74;91.35
60479;BME280;46321;48.398;11.754;2022-09-29T04:34:25;95146.13;;;6.75;91.54
60479;BME280;46321;48.398;11.754;2022-09-29T04:36:51;95151.19;;;6.76;91.50
60479;BME280;46321;48.398;11.754;2022-09-29T04:39:16;95154.28;;;6.80;91.44
60479;BME280;46321;48.398;11.754;2022-09-29T04:41:41;95156.72;;;6.82;91.41
60479;BME280;46321;48.398;11.754;2022-09-29T04:44:06;95160.38;;;6.81;91.48
60479;BME280;46321;48.398;11.754;2022-09-29T04:46:32;95162.19;;;6.80;91.43
60479;BME280;46321;48.398;11.754;2022-09-29T04:48:58;95170.91;;;6.81;91.59
60479;BME280;46321;48.398;11.754;2022-09-29T04:51:23;95158.31;;;6.76;91.58
60479;BME280;46321;48.398;11.754;2022-09-29T04:53:48;95163.19;;;6.79;91.54
60479;BME280;46321;48.398;11.754;2022-09-29T04:56:14;95158.53;;;6.81;91.52
60479;BME280;46321;48.398;11.754;2022-09-29T04:58:40;95149.47;;;6.84;91.79
60479;BME280;46321;48.398;11.754;2022-09-29T05:01:08;95150.38;;;6.91;91.35
60479;BME280;46321;48.398;11.754;2022-09-29T05:03:33;95148.38;;;6.93;91.23
60479;BME280;46321;48.398;11.754;2022-09-29T05:05:59;95144.75;;;6.94;91.01
60479;BME280;46321;48.398;11.754;2022-09-29T05:08:24;95144.38;;;6.97;90.78
60479;BME280;46321;48.398;11.754;2022-09-29T05:10:49;95145.19;;;6.98;90.66
60479;BME280;46321;48.398;11.754;2022-09-29T05:13:15;95150.88;;;7.02;90.67
60479;BME280;46321;48.398;11.754;2022-09-29T05:15:40;95144.81;;;7.01;90.75
60479;BME280;46321;48.398;11.754;2022-09-29T05:18:06;95133.66;;;6.99;90.98
60479;BME280;46321;48.398;11.754;2022-09-29T05:20:31;95133.47;;;7.01;91.08
60479;BME280;46321;48.398;11.754;2022-09-29T05:22:57;95136.94;;;7.01;90.93
60479;BME280;46321;48.398;11.754;2022-09-29T05:25:24;95141.81;;;7.04;90.71
60479;BME280;46321;48.398;11.754;2022-09-29T05:27:50;95138.19;;;7.05;90.81
60479;BME280;46321;48.398;11.754;2022-09-29T05:30:15;95140.44;;;7.08;90.99
60479;BME280;46321;48.398;11.754;2022-09-29T05:32:41;95137.16;;;7.06;91.29
60479;BME280;46321;48.398;11.754;2022-09-29T05:35:08;95136.97;;;7.08;91.09
60479;BME280;46321;48.398;11.754;2022-09-29T05:37:33;95135.56;;;7.05;91.55
60479;BME280;46321;48.398;11.754;2022-09-29T05:39:58;95137.63;;;7.10;91.45
60479;BME280;46321;48.398;11.754;2022-09-29T05:42:23;95132.44;;;7.17;91.14
60479;BME280;46321;48.398;11.754;2022-09-29T05:44:50;95125.34;;;7.17;90.93
60479;BME280;46321;48.398;11.754;2022-09-29T05:47:15;95123.16;;;7.21;90.75
60479;BME280;46321;48.398;11.754;2022-09-29T05:49:40;95124.53;;;7.17;90.81
60479;BME280;46321;48.398;11.754;2022-09-29T05:52:06;95117.91;;;7.21;90.51
60479;BME280;46321;48.398;11.754;2022-09-29T05:54:31;95122.34;;;7.20;90.34
60479;BME280;46321;48.398;11.754;2022-09-29T05:56:56;95131.06;;;7.21;90.57
60479;BME280;46321;48.398;11.754;2022-09-29T05:59:22;95132.03;;;7.20;90.58
60479;BME280;46321;48.398;11.754;2022-09-29T06:01:47;95125.78;;;7.21;90.47
60479;BME280;46321;48.398;11.754;2022-09-29T06:04:12;95127.03;;;7.25;90.41
60479;BME280;46321;48.398;11.754;2022-09-29T06:06:38;95133.75;;;7.28;90.48
60479;BME280;46321;48.398;11.754;2022-09-29T06:09:05;95124.63;;;7.30;90.59
60479;BME280;46321;48.398;11.754;2022-09-29T06:11:32;95133.44;;;7.38;90.55
60479;BME280;46321;48.398;11.754;2022-09-29T06:13:58;95135.91;;;7.46;90.57
60479;BME280;46321;48.398;11.754;2022-09-29T06:16:26;95145.72;;;7.52;90.38
60479;BME280;46321;48.398;11.754;2022-09-29T06:18:52;95144.97;;;7.59;90.29
60479;BME280;46321;48.398;11.754;2022-09-29T06:21:19;95135.88;;;7.61;89.90
60479;BME280;46321;48.398;11.754;2022-09-29T06:23:45;95136.91;;;7.67;89.46
60479;BME280;46321;48.398;11.754;2022-09-29T06:26:13;95135.31;;;7.66;89.57
60479;BME280;46321;48.398;11.754;2022-09-29T06:28:39;95134.69;;;7.64;89.25
60479;BME280;46321;48.398;11.754;2022-09-29T06:31:11;95138.56;;;7.68;88.68
60479;BME280;46321;48.398;11.754;2022-09-29T06:33:37;95143.81;;;7.68;88.45
60479;BME280;46321;48.398;11.754;2022-09-29T06:36:08;95140.13;;;7.62;88.57
60479;BME280;46321;48.398;11.754;2022-09-29T06:38:54;95140.13;;;7.62;88.54
60479;BME280;46321;48.398;11.754;2022-09-29T06:41:19;95144.34;;;7.56;89.28
60479;BME280;46321;48.398;11.754;2022-09-29T06:43:45;95134.22;;;7.60;89.04
60479;BME280;46321;48.398;11.754;2022-09-29T06:46:11;95133.84;;;7.63;89.34
60479;BME280;46321;48.398;11.754;2022-09-29T06:48:36;95138.34;;;7.70;89.51
60479;BME280;46321;48.398;11.754;2022-09-29T06:51:05;95136.16;;;7.73;88.61
60479;BME280;46321;48.398;11.754;2022-09-29T06:53:30;95126.28;;;7.82;88.85
60479;BME280;46321;48.398;11.754;2022-09-29T06:55:55;95141.56;;;7.94;88.21
60479;BME280;46321;48.398;11.754;2022-09-29T06:58:23;95143.47;;;8.07;88.31
60479;BME280;46321;48.398;11.754;2022-09-29T07:00:49;95143.16;;;8.17;88.54
60479;BME280;46321;48.398;11.754;2022-09-29T07:03:14;95148.66;;;8.22;87.74
60479;BME280;46321;48.398;11.754;2022-09-29T07:05:40;95155.13;;;8.19;87.50
60479;BME280;46321;48.398;11.754;2022-09-29T07:08:05;95154.72;;;8.22;86.58
60479;BME280;46321;48.398;11.754;2022-09-29T07:10:30;95149.81;;;8.12;87.01
60479;BME280;46321;48.398;11.754;2022-09-29T07:12:55;95150.31;;;8.30;86.68
60479;BME280;46321;48.398;11.754;2022-09-29T07:15:21;95154.81;;;8.36;86.49
60479;BME280;46321;48.398;11.754;2022-09-29T07:17:50;95163.81;;;8.48;86.16
60479;BME280;46321;48.398;11.754;2022-09-29T07:20:16;95162.72;;;8.36;85.27
60479;BME280;46321;48.398;11.754;2022-09-29T07:22:41;95169.63;;;8.37;85.16
60479;BME280;46321;48.398;11.754;2022-09-29T07:25:10;95169.47;;;8.45;84.67
60479;BME280;46321;48.398;11.754;2022-09-29T07:27:35;95176.97;;;8.42;85.02
60479;BME280;46321;48.398;11.754;2022-09-29T07:30:00;95181.13;;;8.58;84.86
60479;BME280;46321;48.398;11.754;2022-09-29T07:32:26;95173.44;;;8.63;84.07
60479;BME280;46321;48.398;11.754;2022-09-29T07:34:51;95169.66;;;8.73;83.31
60479;BME280;46321;48.398;11.754;2022-09-29T07:37:16;95179.34;;;8.65;84.07
60479;BME280;46321;48.398;11.754;2022-09-29T07:39:41;95181.09;;;8.87;83.70
60479;BME280;46321;48.398;11.754;2022-09-29T07:42:07;95179.31;;;9.08;84.04
60479;BME280;46321;48.398;11.754;2022-09-29T07:44:32;95174.91;;;9.22;83.55
60479;BME280;46321;48.398;11.754;2022-09-29T07:46:58;95172.91;;;9.44;82.55
60479;BME280;46321;48.398;11.754;2022-09-29T07:49:24;95176.00;;;9.75;81.69
60479;BME280;46321;48.398;11.754;2022-09-29T07:51:49;95182.94;;;9.96;80.01
60479;BME280;46321;48.398;11.754;2022-09-29T07:54:14;95173.53;;;10.35;79.25
60479;BME280;46321;48.398;11.754;2022-09-29T07:56:40;95178.00;;;10.41;77.22
60479;BME280;46321;48.398;11.754;2022-09-29T07:59:05;95180.84;;;10.53;77.50
60479;BME280;46321;48.398;11.754;2022-09-29T08:01:31;95185.31;;;10.59;76.30
60479;BME280;46321;48.398;11.754;2022-09-29T08:03:56;95188.94;;;10.79;74.53
60479;BME280;46321;48.398;11.754;2022-09-29T08:06:23;95181.69;;;11.13;74.12
60479;BME280;46321;48.398;11.754;2022-09-29T08:08:49;95187.06;;;11.32;71.89
60479;BME280;46321;48.398;11.754;2022-09-29T08:11:17;95183.88;;;11.16;71.68
60479;BME280;46321;48.398;11.754;2022-09-29T08:13:44;95199.00;;;11.02;71.99
60479;BME280;46321;48.398;11.754;2022-09-29T08:16:11;95199.28;;;11.40;72.81
60479;BME280;46321;48.398;11.754;2022-09-29T08:18:37;95196.19;;;11.75;71.49
60479;BME280;46321;48.398;11.754;2022-09-29T08:21:04;95191.88;;;12.07;71.52
60479;BME280;46321;48.398;11.754;2022-09-29T08:23:33;95190.75;;;12.21;69.69
60479;BME280;46321;48.398;11.754;2022-09-29T08:26:06;95192.69;;;12.14;69.60
60479;BME280;46321;48.398;11.754;2022-09-29T08:28:33;95185.25;;;12.23;70.38
60479;BME280;46321;48.398;11.754;2022-09-29T08:31:03;95189.34;;;12.19;68.89
60479;BME280;46321;48.398;11.754;2022-09-29T08:33:30;95187.66;;;11.99;68.27
60479;BME280;46321;48.398;11.754;2022-09-29T08:35:56;95191.31;;;11.72;69.22
60479;BME280;46321;48.398;11.754;2022-09-29T08:38:23;95187.69;;;11.66;69.64
60479;BME280;46321;48.398;11.754;2022-09-29T08:40:49;95189.56;;;11.59;70.35
60479;BME280;46321;48.398;11.754;2022-09-29T08:46:05;95190.06;;;11.75;70.22
60479;BME280;46321;48.398;11.754;2022-09-29T08:48:35;95180.66;;;11.79;69.96
60479;BME280;46321;48.398;11.754;2022-09-29T08:51:06;95191.88;;;11.49;70.15
60479;BME280;46321;48.398;11.754;2022-09-29T08:53:34;95194.13;;;11.45;69.73
60479;BME280;46321;48.398;11.754;2022-09-29T08:56:08;95184.19;;;11.33;71.16
60479;BME280;46321;48.398;11.754;2022-09-29T08:58:37;95181.31;;;11.42;70.11
60479;BME280;46321;48.398;11.754;2022-09-29T09:09:23;95178.00;;;11.79;70.23
60479;BME280;46321;48.398;11.754;2022-09-29T09:20:51;95184.25;;;12.62;67.13
60479;BME280;46321;48.398;11.754;2022-09-29T09:23:26;95183.53;;;12.54;67.50
60479;BME280;46321;48.398;11.754;2022-09-29T09:26:00;95180.63;;;12.37;67.11
60479;BME280;46321;48.398;11.754;2022-09-29T09:28:44;95188.66;;;12.30;67.90
60479;BME280;46321;48.398;11.754;2022-09-29T09:34:34;95199.50;;;11.71;68.16
60479;BME280;46321;48.398;11.754;2022-09-29T09:37:10;95194.09;;;11.84;67.27
60479;BME280;46321;48.398;11.754;2022-09-29T09:39:41;95184.59;;;11.70;67.99
60479;BME280;46321;48.398;11.754;2022-09-29T09:42:19;95181.78;;;11.64;69.37
60479;BME280;46321;48.398;11.754;2022-09-29T09:44:49;95182.03;;;11.56;68.80
60479;BME280;46321;48.398;11.754;2022-09-29T09:47:28;95191.81;;;11.62;68.35
60479;BME280;46321;48.398;11.754;2022-09-29T09:50:11;95192.63;;;11.56;68.36
60479;BME280;46321;48.398;11.754;2022-09-29T09:52:51;95195.53;;;11.48;68.74
60479;BME280;46321;48.398;11.754;2022-09-29T09:55:22;95200.59;;;11.17;68.69
60479;BME280;46321;48.398;11.754;2022-09-29T10:03:03;95197.06;;;11.30;68.95
60479;BME280;46321;48.398;11.754;2022-09-29T10:05:33;95203.25;;;11.17;70.10
60479;BME280;46321;48.398;11.754;2022-09-29T10:08:02;95209.66;;;10.95;70.58
60479;BME280;46321;48.398;11.754;2022-09-29T10:10:29;95200.69;;;10.96;70.72
60479;BME280;46321;48.398;11.754;2022-09-29T10:13:11;95210.41;;;11.09;71.63
60479;BME280;46321;48.398;11.754;2022-09-29T10:15:59;95203.88;;;11.12;69.89
60479;BME280;46321;48.398;11.754;2022-09-29T10:18:45;95205.88;;;11.17;69.37
60479;BME280;46321;48.398;11.754;2022-09-29T10:23:50;95216.31;;;11.05;68.42
60479;BME280;46321;48.398;11.754;2022-09-29T10:26:19;95217.34;;;11.10;68.15
60479;BME280;46321;48.398;11.754;2022-09-29T10:28:54;95221.69;;;10.84;70.71
60479;BME280;46321;48.398;11.754;2022-09-29T10:31:35;95223.56;;;10.77;71.67
60479;BME280;46321;48.398;11.754;2022-09-29T10:34:23;95219.91;;;10.58;72.10
60479;BME280;46321;48.398;11.754;2022-09-29T10:36:51;95222.72;;;10.76;72.44
60479;BME280;46321;48.398;11.754;2022-09-29T10:39:43;95223.50;;;10.91;71.79
60479;BME280;46321;48.398;11.754;2022-09-29T10:42:30;95224.69;;;11.02;72.34
60479;BME280;46321;48.398;11.754;2022-09-29T10:45:21;95225.06;;;11.12;72.57
60479;BME280;46321;48.398;11.754;2022-09-29T10:50:25;95233.69;;;10.87;70.14
60479;BME280;46321;48.398;11.754;2022-09-29T10:52:54;95232.66;;;10.95;69.20
60479;BME280;46321;48.398;11.754;2022-09-29T10:55:25;95240.19;;;10.91;69.42
60479;BME280;46321;48.398;11.754;2022-09-29T10:57:54;95233.69;;;10.87;69.90
60479;BME280;46321;48.398;11.754;2022-09-29T11:00:33;95238.38;;;10.92;69.54
60479;BME280;46321;48.398;11.754;2022-09-29T11:03:06;95231.25;;;10.92;71.07
60479;BME280;46321;48.398;11.754;2022-09-29T11:05:33;95226.94;;;10.91;71.58
60479;BME280;46321;48.398;11.754;2022-09-29T11:08:00;95238.84;;;10.61;70.11
60479;BME280;46321;48.398;11.754;2022-09-29T11:10:28;95248.41;;;10.56;69.70
60479;BME280;46321;48.398;11.754;2022-09-29T11:12:54;95239.63;;;10.62;69.92
60479;BME280;46321;48.398;11.754;2022-09-29T11:15:28;95253.91;;;10.40;71.01
60479;BME280;46321;48.398;11.754;2022-09-29T11:18:18;95241.91;;;10.51;70.47
60479;BME280;46321;48.398;11.754;2022-09-29T11:20:44;95241.88;;;10.45;71.50
60479;BME280;46321;48.398;11.754;2022-09-29T11:25:50;95246.78;;;10.48;72.64
60479;BME280;46321;48.398;11.754;2022-09-29T11:36:23;95245.56;;;10.57;71.45
60479;BME280;46321;48.398;11.754;2022-09-29T11:39:03;95256.34;;;10.62;71.25
60479;BME280;46321;48.398;11.754;2022-09-29T11:44:28;95252.09;;;10.55;71.01
60479;BME280;46321;48.398;11.754;2022-09-29T11:47:22;95250.03;;;10.70;71.37
60479;BME280;46321;48.398;11.754;2022-09-29T11:52:45;95245.47;;;10.91;70.81
60479;BME280;46321;48.398;11.754;2022-09-29T11:58:05;95254.69;;;10.88;71.04
60479;BME280;46321;48.398;11.754;2022-09-29T12:03:20;95262.25;;;10.58;72.15
60479;BME280;46321;48.398;11.754;2022-09-29T12:09:03;95257.34;;;10.75;71.86
60479;BME280;46321;48.398;11.754;2022-09-29T12:11:59;95267.72;;;10.70;73.17
60479;BME280;46321;48.398;11.754;2022-09-29T12:17:16;95257.91;;;10.97;71.92
60479;BME280;46321;48.398;11.754;2022-09-29T12:20:04;95266.22;;;11.08;72.38
60479;BME280;46321;48.398;11.754;2022-09-29T12:22:31;95265.59;;;11.13;71.11
60479;BME280;46321;48.398;11.754;2022-09-29T12:24:58;95257.63;;;11.19;71.72
60479;BME280;46321;48.398;11.754;2022-09-29T12:27:33;95260.66;;;11.23;73.18
60479;BME280;46321;48.398;11.754;2022-09-29T12:30:24;95252.88;;;11.35;72.86
60479;BME280;46321;48.398;11.754;2022-09-29T12:33:02;95250.00;;;11.43;73.28
60479;BME280;46321;48.398;11.754;2022-09-29T12:35:38;95256.69;;;11.53;73.05
60479;BME280;46321;48.398;11.754;2022-09-29T12:38:21;95259.06;;;11.61;72.64
60479;BME280;46321;48.398;11.754;2022-09-29T12:41:20;95260.91;;;11.61;72.27
60479;BME280;46321;48.398;11.754;2022-09-29T12:43:59;95255.38;;;11.69;72.23
60479;BME280;46321;48.398;11.754;2022-09-29T12:46:44;95251.88;;;11.75;72.37
60479;BME280;46321;48.398;11.754;2022-09-29T12:49:31;95247.34;;;11.83;72.20
60479;BME280;46321;48.398;11.754;2022-09-29T12:52:01;95242.88;;;11.76;72.17
60479;BME280;46321;48.398;11.754;2022-09-29T12:55:01;95250.00;;;11.83;73.89
60479;BME280;46321;48.398;11.754;2022-09-29T12:57:31;95247.31;;;11.89;72.77
60479;BME280;46321;48.398;11.754;2022-09-29T13:00:04;95243.97;;;11.94;72.03
60479;BME280;46321;48.398;11.754;2022-09-29T13:06:28;95246.78;;;11.74;71.21
60479;BME280;46321;48.398;11.754;2022-09-29T13:17:16;95242.28;;;11.74;69.10
60479;BME280;46321;48.398;11.754;2022-09-29T13:22:50;95255.84;;;11.52;69.65
60479;BME280;46321;48.398;11.754;2022-09-29T13:27:57;95245.38;;;11.25;71.64
60479;BME280;46321;48.398;11.754;2022-09-29T13:30:29;95256.38;;;11.29;69.96
60479;BME280;46321;48.398;11.754;2022-09-29T13:33:07;95255.47;;;11.49;70.21
60479;BME280;46321;48.398;11.754;2022-09-29T13:35:39;95258.28;;;11.54;71.11
60479;BME280;46321;48.398;11.754;2022-09-29T13:38:10;95265.59;;;11.59;70.69
60479;BME280;46321;48.398;11.754;2022-09-29T13:40:38;95258.31;;;11.47;70.01
60479;BME280;46321;48.398;11.754;2022-09-29T13:43:03;95257.31;;;11.48;69.47
60479;BME280;46321;48.398;11.754;2022-09-29T13:50:55;95266.50;;;11.39;68.77
60479;BME280;46321;48.398;11.754;2022-09-29T13:55:53;95270.22;;;11.31;70.73
60479;BME280;46321;48.398;11.754;2022-09-29T13:58:23;95272.44;;;11.34;70.56
60479;BME280;46321;48.398;11.754;2022-09-29T14:00:49;95266.09;;;11.42;71.66
60479;BME280;46321;48.398;11.754;2022-09-29T14:03:33;95282.00;;;11.42;72.70
60479;BME280;46321;48.398;11.754;2022-09-29T14:09:18;95277.09;;;11.45;74.18
60479;BME280;46321;48.398;11.754;2022-09-29T14:11:49;95279.81;;;11.18;71.98
60479;BME280;46321;48.398;11.754;2022-09-29T14:14:37;95282.47;;;11.25;71.36
60479;BME280;46321;48.398;11.754;2022-09-29T14:17:23;95291.47;;;11.17;72.35
60479;BME280;46321;48.398;11.754;2022-09-29T14:27:43;95302.50;;;10.87;73.48
60479;BME280;46321;48.398;11.754;2022-09-29T14:30:41;95298.63;;;10.96;73.61
60479;BME280;46321;48.398;11.754;2022-09-29T14:33:28;95306.19;;;10.86;74.45
60479;BME280;46321;48.398;11.754;2022-09-29T14:38:26;95316.38;;;10.75;72.69
60479;BME280;46321;48.398;11.754;2022-09-29T14:43:35;95322.50;;;10.69;72.41
60479;BME280;46321;48.398;11.754;2022-09-29T14:52:05;95337.97;;;10.72;72.77
60479;BME280;46321;48.398;11.754;2022-09-29T14:55:02;95332.69;;;10.59;72.86
60479;BME280;46321;48.398;11.754;2022-09-29T15:00:14;95341.22;;;10.54;73.81
60479;BME280;46321;48.398;11.754;2022-09-29T15:02:46;95339.16;;;10.42;72.91
60479;BME280;46321;48.398;11.754;2022-09-29T15:05:24;95342.41;;;10.45;73.33
60479;BME280;46321;48.398;11.754;2022-09-29T15:07:50;95338.78;;;10.52;73.68
60479;BME280;46321;48.398;11.754;2022-09-29T15:10:25;95336.91;;;10.46;74.21
60479;BME280;46321;48.398;11.754;2022-09-29T15:12:51;95346.09;;;10.37;73.68
60479;BME280;46321;48.398;11.754;2022-09-29T15:15:32;95341.19;;;10.34;75.01
60479;BME280;46321;48.398;11.754;2022-09-29T15:18:08;95346.88;;;10.37;74.78
60479;BME280;46321;48.398;11.754;2022-09-29T15:21:05;95342.00;;;10.41;74.96
60479;BME280;46321;48.398;11.754;2022-09-29T15:24:00;95345.25;;;10.29;75.16